Time;durP1;ratioP1;P1;durP2;ratioP2;P2;SDS_P1;SDS_P2;PMS_P1;PMS_P2;Temp;Humidity;BMP_temperature;BMP_pressure;BME280_temperature;BME280_humidity;BME280_pressure;Samples;Min_cycle;Max_cycle;Signal;HPM_P1;HPM_P2
2024/03/11 00:01:44;;;;;;;4.22;2.60;;;21.20;52.10;;;;;;5081259;28;20161;-64
2024/03/11 00:04:13;;;;;;;4.30;2.50;;;21.20;52.10;;;;;;5082662;28;20505;-64
2024/03/11 00:06:40;;;;;;;3.90;2.58;;;21.20;52.10;;;;;;5061996;28;20020;-64
2024/03/11 00:09:18;;;;;;;4.57;2.80;;;21.10;52.10;;;;;;5080543;28;20024;-64
2024/03/11 00:11:55;;;;;;;4.65;2.72;;;21.10;52.10;;;;;;5080675;28;20025;-64
2024/03/11 00:14:25;;;;;;;4.00;2.60;;;21.10;52.10;;;;;;5083099;28;20024;-65
2024/03/11 00:16:55;;;;;;;4.93;2.67;;;21.10;52.10;;;;;;5082374;28;20031;-64
2024/03/11 00:19:21;;;;;;;3.72;2.33;;;21.10;52.10;;;;;;5081408;28;20036;-64
2024/03/11 00:21:51;;;;;;;4.00;2.70;;;21.10;52.10;;;;;;5081234;28;20021;-64
2024/03/11 00:24:17;;;;;;;3.67;2.35;;;21.10;52.10;;;;;;5080887;28;20097;-64
2024/03/11 00:26:42;;;;;;;4.03;2.50;;;21.10;52.00;;;;;;5080280;28;20107;-64
2024/03/11 00:29:08;;;;;;;3.40;2.38;;;21.10;52.00;;;;;;5079821;28;20365;-64
2024/03/11 00:31:36;;;;;;;3.75;2.40;;;21.10;52.00;;;;;;5079188;28;20036;-65
2024/03/11 00:34:03;;;;;;;3.15;2.22;;;21.10;52.00;;;;;;5079982;28;20039;-64
2024/03/11 00:36:30;;;;;;;2.97;2.15;;;21.10;52.00;;;;;;5079681;28;20552;-64
2024/03/11 00:38:57;;;;;;;3.60;2.40;;;21.10;52.00;;;;;;5081140;28;20086;-64
2024/03/11 00:41:24;;;;;;;3.67;2.35;;;21.10;52.00;;;;;;5079201;28;20020;-64
2024/03/11 00:43:50;;;;;;;3.63;2.53;;;21.10;52.00;;;;;;5079691;28;20035;-64
2024/03/11 00:46:16;;;;;;;3.95;2.17;;;21.10;52.00;;;;;;5080875;28;20028;-64
2024/03/11 00:48:43;;;;;;;3.72;2.60;;;21.10;52.00;;;;;;5080840;28;20463;-64
2024/03/11 00:51:09;;;;;;;3.58;2.35;;;21.10;52.50;;;;;;5079298;28;20024;-65
2024/03/11 00:53:36;;;;;;;3.60;2.20;;;21.10;52.50;;;;;;5078962;28;20444;-64
2024/03/11 00:56:01;;;;;;;3.67;2.30;;;21.10;52.00;;;;;;5080361;28;20460;-64
2024/03/11 00:58:30;;;;;;;3.47;2.20;;;21.10;52.00;;;;;;5079237;28;20035;-65
2024/03/11 01:00:56;;;;;;;3.50;2.15;;;21.10;52.00;;;;;;5078577;28;20111;-65
2024/03/11 01:03:22;;;;;;;3.55;2.30;;;21.10;52.00;;;;;;5081913;28;20417;-65
2024/03/11 01:05:49;;;;;;;2.80;1.98;;;21.10;52.00;;;;;;5061121;28;20024;-65
2024/03/11 01:08:16;;;;;;;3.30;2.00;;;21.00;51.90;;;;;;5080466;28;20433;-65
2024/03/11 01:10:42;;;;;;;3.05;2.10;;;21.00;52.00;;;;;;5079976;28;20033;-65
2024/03/11 01:13:08;;;;;;;3.40;2.15;;;21.00;52.00;;;;;;5060976;28;20028;-65
2024/03/11 01:15:34;;;;;;;3.22;2.20;;;21.00;52.00;;;;;;5080280;28;20575;-64
2024/03/11 01:18:00;;;;;;;2.80;1.90;;;21.00;52.00;;;;;;5076511;28;20024;-65
2024/03/11 01:20:25;;;;;;;3.38;2.20;;;21.00;52.00;;;;;;5074978;28;20034;-65
2024/03/11 01:22:52;;;;;;;4.03;2.10;;;21.00;52.00;;;;;;5079107;28;20607;-65
2024/03/11 01:25:20;;;;;;;2.80;1.85;;;21.00;52.50;;;;;;5079235;28;20481;-65
2024/03/11 01:27:45;;;;;;;3.63;2.20;;;21.00;52.00;;;;;;5079018;28;20032;-65
2024/03/11 01:30:12;;;;;;;3.20;2.13;;;21.00;52.00;;;;;;5078709;28;20039;-65
2024/03/11 01:32:39;;;;;;;3.15;2.00;;;21.00;52.00;;;;;;5078222;28;20387;-65
2024/03/11 01:35:06;;;;;;;3.20;1.88;;;21.00;52.00;;;;;;5077651;28;20025;-65
2024/03/11 01:37:32;;;;;;;3.13;2.00;;;21.00;52.00;;;;;;5079351;28;20465;-66
2024/03/11 01:39:57;;;;;;;3.30;2.03;;;20.90;52.00;;;;;;5078047;28;20039;-66
2024/03/11 01:42:23;;;;;;;2.83;1.75;;;21.00;52.50;;;;;;5078894;28;20393;-67
2024/03/11 01:44:51;;;;;;;2.60;1.80;;;20.90;52.00;;;;;;5078250;28;20056;-66
2024/03/11 01:47:21;;;;;;;3.05;1.95;;;20.90;52.00;;;;;;5077711;28;20059;-67
2024/03/11 01:49:52;;;;;;;;;;;20.90;52.00;;;;;;5080412;28;20079;-67
2024/03/11 01:52:31;;;;;;;3.20;1.90;;;20.90;52.00;;;;;;5076859;28;20279;-67
2024/03/11 01:54:58;;;;;;;2.90;1.83;;;20.90;52.00;;;;;;5079813;28;20024;-67
2024/03/11 01:57:26;;;;;;;2.72;1.85;;;20.90;52.00;;;;;;5078113;28;20032;-66
2024/03/11 01:59:52;;;;;;;2.67;1.77;;;20.90;52.00;;;;;;5078494;28;20022;-66
2024/03/11 02:02:20;;;;;;;3.10;1.73;;;20.90;52.00;;;;;;5077872;28;20107;-66
2024/03/11 02:04:47;;;;;;;3.30;2.00;;;20.90;52.00;;;;;;5076444;28;20020;-67
2024/03/11 02:07:14;;;;;;;2.90;1.75;;;20.90;52.00;;;;;;5077649;28;20119;-63
2024/03/11 02:09:43;;;;;;;3.17;2.03;;;20.90;52.00;;;;;;5079681;28;20020;-67
2024/03/11 02:12:10;;;;;;;2.55;1.80;;;20.90;52.00;;;;;;5077527;28;20393;-66
2024/03/11 02:14:36;;;;;;;3.00;1.75;;;20.90;52.00;;;;;;5078618;28;20544;-67
2024/03/11 02:17:03;;;;;;;3.10;1.90;;;20.90;52.00;;;;;;5077098;28;20127;-64
2024/03/11 02:19:29;;;;;;;2.80;1.90;;;20.80;52.00;;;;;;5076242;28;20475;-63
2024/03/11 02:21:54;;;;;;;2.50;1.70;;;20.80;52.00;;;;;;5059459;28;20031;-65
2024/03/11 02:24:20;;;;;;;2.80;1.75;;;20.80;52.00;;;;;;5077153;28;20504;-64
2024/03/11 02:26:48;;;;;;;2.80;1.80;;;20.80;52.00;;;;;;5078218;28;20110;-64
2024/03/11 02:29:17;;;;;;;2.50;1.60;;;20.80;52.00;;;;;;5062701;28;20042;-64
2024/03/11 02:31:44;;;;;;;3.97;2.10;;;20.80;52.00;;;;;;5080496;28;20547;-64
2024/03/11 02:34:10;;;;;;;3.17;1.88;;;20.80;52.00;;;;;;5080874;28;20107;-64
2024/03/11 02:36:36;;;;;;;3.28;1.80;;;20.80;52.00;;;;;;5079904;28;20902;-65
2024/03/11 02:39:05;;;;;;;2.60;1.60;;;20.80;52.00;;;;;;5081817;28;20047;-64
2024/03/11 02:41:32;;;;;;;2.75;1.65;;;20.80;52.00;;;;;;5084737;28;20031;-64
2024/03/11 02:43:58;;;;;;;3.13;1.80;;;20.80;52.00;;;;;;5084935;28;20046;-64
2024/03/11 02:46:23;;;;;;;2.40;1.60;;;20.80;52.00;;;;;;5081122;28;20539;-64
2024/03/11 02:48:49;;;;;;;3.13;1.90;;;20.80;52.00;;;;;;5081270;28;20033;-63
2024/03/11 02:51:15;;;;;;;2.47;1.77;;;20.80;52.00;;;;;;5080396;28;20040;-63
2024/03/11 02:53:40;;;;;;;2.50;1.63;;;20.70;52.00;;;;;;5082976;28;20477;-64
2024/03/11 02:56:07;;;;;;;2.60;1.60;;;20.70;52.00;;;;;;5064235;28;20024;-64
2024/03/11 02:58:34;;;;;;;3.00;1.70;;;20.70;52.00;;;;;;5082549;28;20017;-63
2024/03/11 03:01:01;;;;;;;2.45;1.65;;;20.70;51.90;;;;;;5080755;28;20025;-64
2024/03/11 03:03:27;;;;;;;2.70;1.80;;;20.70;52.00;;;;;;5082860;28;20016;-63
2024/03/11 03:05:52;;;;;;;2.50;1.70;;;20.70;52.00;;;;;;5078315;28;20548;-64
2024/03/11 03:08:18;;;;;;;2.88;1.60;;;20.80;52.00;;;;;;5064619;28;20028;-63
2024/03/11 03:10:44;;;;;;;2.65;1.60;;;20.70;52.00;;;;;;5081128;28;20499;-63
2024/03/11 03:13:09;;;;;;;2.38;1.50;;;20.70;52.00;;;;;;5081934;28;20425;-63
2024/03/11 03:15:36;;;;;;;2.40;1.60;;;20.70;52.00;;;;;;5080615;28;20044;-63
2024/03/11 03:18:01;;;;;;;2.20;1.40;;;20.70;52.10;;;;;;5080752;28;20032;-67
2024/03/11 03:20:27;;;;;;;2.78;1.80;;;20.70;52.10;;;;;;5081765;28;20460;-66
2024/03/11 03:22:53;;;;;;;2.67;1.65;;;20.70;52.00;;;;;;5077755;28;20048;-66
2024/03/11 03:25:18;;;;;;;2.22;1.55;;;20.70;52.00;;;;;;5081483;28;20174;-66
2024/03/11 03:27:44;;;;;;;2.22;1.45;;;20.70;52.00;;;;;;5081306;28;20028;-63
2024/03/11 03:30:10;;;;;;;2.40;1.50;;;20.70;52.00;;;;;;5079815;28;20036;-64
2024/03/11 03:32:37;;;;;;;2.78;1.88;;;20.70;52.00;;;;;;5065612;28;20031;-63
2024/03/11 03:35:05;;;;;;;2.70;1.63;;;20.70;52.50;;;;;;5083329;28;20493;-63
2024/03/11 03:37:30;;;;;;;3.25;1.60;;;20.70;52.00;;;;;;5076758;28;20031;-63
2024/03/11 03:39:56;;;;;;;2.72;1.60;;;20.70;52.00;;;;;;5080129;28;20032;-63
2024/03/11 03:42:22;;;;;;;2.22;1.40;;;20.60;52.00;;;;;;5081091;28;20021;-62
2024/03/11 03:44:48;;;;;;;2.50;1.50;;;20.70;52.10;;;;;;5081334;28;20024;-62
2024/03/11 03:47:15;;;;;;;3.00;1.80;;;20.60;52.00;;;;;;5080380;28;20039;-64
2024/03/11 03:49:40;;;;;;;3.72;2.00;;;20.60;52.00;;;;;;5081702;28;20020;-63
2024/03/11 03:52:06;;;;;;;2.08;1.40;;;20.70;52.10;;;;;;5079225;28;20403;-63
2024/03/11 03:54:32;;;;;;;2.10;1.50;;;20.60;52.00;;;;;;5081021;28;20110;-63
2024/03/11 03:56:58;;;;;;;2.10;1.50;;;20.60;52.00;;;;;;5081629;28;20067;-64
2024/03/11 03:59:24;;;;;;;2.60;1.50;;;20.60;52.00;;;;;;5081051;28;20484;-64
2024/03/11 04:01:50;;;;;;;2.10;1.40;;;20.60;52.00;;;;;;5079300;28;20098;-63
2024/03/11 04:04:15;;;;;;;2.55;1.58;;;20.60;52.00;;;;;;5082827;28;20028;-64
2024/03/11 04:06:41;;;;;;;2.72;1.45;;;20.60;52.00;;;;;;5079716;28;20074;-64
2024/03/11 04:09:09;;;;;;;2.28;1.50;;;20.60;52.00;;;;;;5081364;28;20027;-63
2024/03/11 04:11:38;;;;;;;2.60;1.50;;;20.60;52.00;;;;;;5080031;28;20069;-63
2024/03/11 04:14:05;;;;;;;2.67;1.60;;;20.60;52.00;;;;;;5079892;28;20460;-64
2024/03/11 04:16:31;;;;;;;2.78;1.55;;;20.60;52.00;;;;;;5080378;28;20844;-64
2024/03/11 04:18:57;;;;;;;2.15;1.40;;;20.60;52.00;;;;;;5079456;28;20032;-64
2024/03/11 04:21:23;;;;;;;2.05;1.38;;;20.60;52.10;;;;;;5062268;28;20551;-64
2024/03/11 04:23:50;;;;;;;2.67;1.30;;;20.60;52.10;;;;;;5079275;28;20031;-64
2024/03/11 04:26:16;;;;;;;2.22;1.30;;;20.60;52.50;;;;;;5077520;28;20195;-64
2024/03/11 04:28:43;;;;;;;2.10;1.30;;;20.60;52.00;;;;;;5076904;28;20028;-65
2024/03/11 04:31:09;;;;;;;1.85;1.20;;;20.60;52.00;;;;;;5075204;28;20081;-65
2024/03/11 04:33:35;;;;;;;2.08;1.30;;;20.60;52.00;;;;;;5079922;28;20467;-65
2024/03/11 04:36:01;;;;;;;2.70;1.38;;;20.60;52.10;;;;;;5080477;28;20059;-65
2024/03/11 04:38:26;;;;;;;1.90;1.35;;;20.50;52.00;;;;;;5077483;28;20122;-63
2024/03/11 04:40:52;;;;;;;1.90;1.20;;;20.50;52.00;;;;;;5081335;28;20024;-62
2024/03/11 04:43:18;;;;;;;2.25;1.38;;;20.50;52.00;;;;;;5077662;28;20025;-63
2024/03/11 04:45:43;;;;;;;2.00;1.35;;;20.50;52.00;;;;;;5080160;28;20032;-62
2024/03/11 04:48:09;;;;;;;2.42;1.50;;;20.50;52.00;;;;;;5080385;28;20046;-64
2024/03/11 04:50:37;;;;;;;2.25;1.35;;;20.50;52.00;;;;;;5080811;28;20114;-63
2024/03/11 04:53:04;;;;;;;1.73;1.20;;;20.50;52.50;;;;;;5076067;28;20051;-62
2024/03/11 04:55:31;;;;;;;2.25;1.40;;;20.50;52.10;;;;;;5080724;28;20036;-62
2024/03/11 04:57:58;;;;;;;1.83;1.30;;;20.50;52.60;;;;;;5078279;28;20361;-63
2024/03/11 05:00:28;;;;;;;1.70;1.20;;;20.50;52.10;;;;;;5080536;28;20020;-64
2024/03/11 05:02:55;;;;;;;1.77;1.17;;;20.50;52.60;;;;;;5080609;28;20502;-63
2024/03/11 05:05:21;;;;;;;2.50;1.40;;;20.50;52.10;;;;;;5078973;28;20514;-62
2024/03/11 05:07:49;;;;;;;3.05;1.40;;;20.50;52.20;;;;;;5059353;28;20131;-62
2024/03/11 05:10:15;;;;;;;1.60;1.13;;;20.50;52.20;;;;;;5082443;28;20028;-63
2024/03/11 05:12:41;;;;;;;2.03;1.20;;;20.50;52.20;;;;;;5079658;28;20071;-63
2024/03/11 05:15:09;;;;;;;1.75;1.10;;;20.50;52.30;;;;;;5077957;28;20042;-62
2024/03/11 05:17:35;;;;;;;1.75;1.10;;;20.50;52.40;;;;;;5078620;28;20031;-63
2024/03/11 05:20:06;;;;;;;2.20;1.20;;;20.50;52.30;;;;;;5078313;28;20215;-63
2024/03/11 05:22:32;;;;;;;1.70;1.00;;;20.50;52.40;;;;;;5078501;28;20469;-63
2024/03/11 05:24:58;;;;;;;1.52;1.05;;;20.50;52.30;;;;;;5080833;28;20026;-61
2024/03/11 05:27:24;;;;;;;1.63;1.10;;;20.50;52.30;;;;;;5079618;28;20135;-63
2024/03/11 05:29:49;;;;;;;2.63;1.20;;;20.50;52.30;;;;;;5078287;28;20028;-63
2024/03/11 05:32:15;;;;;;;2.72;1.20;;;20.50;52.30;;;;;;5078833;28;20044;-63
2024/03/11 05:34:41;;;;;;;1.92;1.10;;;20.50;52.30;;;;;;5075421;28;20020;-63
2024/03/11 05:37:06;;;;;;;1.33;0.90;;;20.50;52.40;;;;;;5079003;28;20051;-64
2024/03/11 05:39:34;;;;;;;1.63;1.10;;;20.50;52.40;;;;;;5077036;28;20051;-67
2024/03/11 05:41:59;;;;;;;1.63;1.08;;;20.50;52.60;;;;;;5082274;28;20195;-66
2024/03/11 05:44:25;;;;;;;1.80;1.20;;;20.50;52.60;;;;;;5081671;28;20207;-66
2024/03/11 05:46:51;;;;;;;1.83;1.15;;;20.50;52.80;;;;;;5077423;28;20462;-66
2024/03/11 05:49:16;;;;;;;1.23;0.90;;;20.40;52.70;;;;;;5076603;28;20039;-63
2024/03/11 05:51:42;;;;;;;1.30;0.90;;;20.50;52.90;;;;;;5077388;28;20440;-63
2024/03/11 05:54:17;;;;;;;2.10;1.20;;;20.50;52.90;;;;;;5077167;28;20024;-64
2024/03/11 05:56:54;;;;;;;1.65;1.00;;;20.50;53.10;;;;;;5078595;28;20048;-64
2024/03/11 05:59:23;;;;;;;2.20;1.10;;;20.50;53.10;;;;;;5077390;28;20031;-63
2024/03/11 06:01:49;;;;;;;2.10;1.10;;;20.50;53.20;;;;;;5079411;28;20038;-64
2024/03/11 06:04:15;;;;;;;2.08;1.20;;;20.40;53.20;;;;;;5077695;28;20064;-62
2024/03/11 06:06:45;;;;;;;2.42;1.20;;;20.50;53.20;;;;;;5079808;28;20483;-64
2024/03/11 06:09:14;;;;;;;4.03;1.25;;;20.40;53.20;;;;;;5077524;28;20032;-63
2024/03/11 06:11:40;;;;;;;1.63;1.10;;;20.40;53.20;;;;;;5080859;28;20475;-62
2024/03/11 06:14:07;;;;;;;2.22;1.20;;;20.50;53.30;;;;;;5061431;28;20028;-62
2024/03/11 06:16:33;;;;;;;2.22;1.27;;;20.40;53.10;;;;;;5058263;28;20055;-62
2024/03/11 06:19:00;;;;;;;1.70;1.10;;;20.40;53.10;;;;;;5079473;28;20899;-63
2024/03/11 06:21:25;;;;;;;1.63;1.02;;;20.40;53.00;;;;;;5078948;28;20020;-63
2024/03/11 06:23:51;;;;;;;1.70;1.00;;;20.40;53.00;;;;;;5076375;28;20028;-64
2024/03/11 06:26:17;;;;;;;1.95;1.02;;;20.40;53.10;;;;;;5059861;28;20047;-62
2024/03/11 06:28:43;;;;;;;2.20;1.20;;;20.40;53.00;;;;;;5077633;28;20390;-64
2024/03/11 06:31:08;;;;;;;2.17;1.30;;;20.40;53.10;;;;;;5078478;28;20028;-62
2024/03/11 06:33:36;;;;;;;3.47;1.20;;;20.40;53.00;;;;;;5076036;28;20503;-63
2024/03/11 06:36:02;;;;;;;2.90;1.13;;;20.40;53.00;;;;;;5077596;28;20037;-62
2024/03/11 06:38:29;;;;;;;3.05;1.13;;;20.40;53.10;;;;;;5076271;28;20036;-63
2024/03/11 06:40:56;;;;;;;2.83;1.20;;;20.40;53.10;;;;;;5077760;28;20032;-63
2024/03/11 06:43:23;;;;;;;3.17;1.40;;;20.40;53.50;;;;;;5078200;28;20110;-63
2024/03/11 06:45:48;;;;;;;3.35;1.60;;;20.40;53.10;;;;;;5078666;28;20473;-62
2024/03/11 06:48:14;;;;;;;5.35;1.77;;;20.40;53.10;;;;;;5079185;28;20028;-66
2024/03/11 06:50:39;;;;;;;3.63;1.40;;;20.40;53.60;;;;;;5076198;28;20099;-67
2024/03/11 06:53:08;;;;;;;5.88;1.77;;;20.40;53.10;;;;;;5076106;28;20040;-66
2024/03/11 06:55:34;;;;;;;5.57;1.92;;;20.40;53.20;;;;;;5079026;28;20491;-66
2024/03/11 06:58:00;;;;;;;9.93;2.35;;;20.40;53.30;;;;;;5062589;28;20476;-65
2024/03/11 07:00:27;;;;;;;7.50;2.40;;;20.40;53.30;;;;;;5076509;28;20025;-66
2024/03/11 07:02:53;;;;;;;7.70;2.45;;;20.40;53.40;;;;;;5078314;28;20021;-66
2024/03/11 07:05:26;;;;;;;6.90;2.33;;;20.40;53.50;;;;;;5061058;28;20042;-66
2024/03/11 07:07:52;;;;;;;7.05;2.63;;;20.40;53.50;;;;;;5076268;28;20484;-66
2024/03/11 07:10:18;;;;;;;6.68;2.65;;;20.40;53.60;;;;;;5075864;28;20464;-67
2024/03/11 07:12:44;;;;;;;5.95;2.47;;;20.40;53.60;;;;;;5078362;28;20028;-66
2024/03/11 07:15:10;;;;;;;7.00;2.35;;;20.40;53.60;;;;;;5077818;28;20378;-66
2024/03/11 07:17:36;;;;;;;6.20;2.33;;;20.40;53.60;;;;;;5078130;28;20055;-66
2024/03/11 07:20:08;;;;;;;7.45;2.35;;;20.40;53.60;;;;;;5080734;28;20124;-67
2024/03/11 07:22:38;;;;;;;5.78;2.10;;;20.40;53.70;;;;;;5080514;28;20495;-66
2024/03/11 07:25:11;;;;;;;4.72;2.30;;;20.40;53.60;;;;;;5063664;28;20031;-66
2024/03/11 07:27:38;;;;;;;6.78;2.30;;;20.40;53.70;;;;;;5066014;28;20372;-64
2024/03/11 07:30:06;;;;;;;6.95;2.40;;;20.40;53.70;;;;;;5081213;28;20614;-66
2024/03/11 07:32:33;;;;;;;5.65;2.67;;;20.40;53.70;;;;;;5082101;28;20027;-66
2024/03/11 07:34:59;;;;;;;5.57;2.17;;;20.40;53.80;;;;;;5081070;28;20027;-66
2024/03/11 07:37:25;;;;;;;5.03;2.08;;;20.40;53.80;;;;;;5080783;28;20464;-66
2024/03/11 07:39:52;;;;;;;7.85;2.38;;;20.40;53.80;;;;;;5080436;28;20558;-66
2024/03/11 07:42:22;;;;;;;5.90;2.33;;;20.40;53.80;;;;;;5081163;28;20500;-67
2024/03/11 07:44:51;;;;;;;5.53;2.25;;;20.40;53.90;;;;;;5065619;28;20083;-67
2024/03/11 07:47:17;;;;;;;6.22;2.20;;;20.40;53.90;;;;;;5081152;28;20036;-66
2024/03/11 07:49:43;;;;;;;5.25;2.00;;;20.40;53.90;;;;;;5082013;28;20912;-66
2024/03/11 07:52:09;;;;;;;5.18;1.95;;;20.40;54.40;;;;;;5081677;28;20028;-66
2024/03/11 07:54:35;;;;;;;4.97;2.08;;;20.50;54.00;;;;;;5081613;28;20023;-66
2024/03/11 07:57:00;;;;;;;3.90;2.00;;;20.50;54.00;;;;;;5081393;28;20488;-66
2024/03/11 07:59:26;;;;;;;3.40;1.70;;;20.50;54.00;;;;;;5081467;28;20509;-64
2024/03/11 08:01:52;;;;;;;4.80;2.28;;;20.50;54.00;;;;;;5081311;28;20472;-64
2024/03/11 08:04:18;;;;;;;5.07;2.13;;;20.50;54.00;;;;;;5081528;28;20099;-65
2024/03/11 08:06:44;;;;;;;3.22;1.90;;;20.50;54.00;;;;;;5080686;28;20128;-64
2024/03/11 08:09:10;;;;;;;5.20;2.05;;;20.50;54.10;;;;;;5081094;28;20024;-64
2024/03/11 08:11:36;;;;;;;5.07;1.90;;;20.50;54.00;;;;;;5079039;28;20023;-65
2024/03/11 08:14:04;;;;;;;5.10;2.35;;;20.50;54.00;;;;;;5067057;28;20092;-64
2024/03/11 08:16:29;;;;;;;3.88;1.90;;;20.50;54.10;;;;;;5080336;28;20031;-64
2024/03/11 08:18:55;;;;;;;4.30;1.85;;;20.50;54.10;;;;;;5082594;28;20484;-64
2024/03/11 08:21:20;;;;;;;3.83;1.73;;;20.50;54.10;;;;;;5080184;28;20089;-64
2024/03/11 08:23:46;;;;;;;4.07;1.75;;;20.50;54.60;;;;;;5075892;28;20473;-64
2024/03/11 08:26:13;;;;;;;4.25;1.90;;;20.50;54.10;;;;;;5079469;28;20038;-64
2024/03/11 08:28:39;;;;;;;3.72;1.63;;;20.50;54.10;;;;;;5079290;28;20390;-64
2024/03/11 08:31:09;;;;;;;3.88;1.88;;;20.50;54.10;;;;;;5083091;28;20025;-64
2024/03/11 08:33:37;;;;;;;;;;;20.50;54.60;;;;;;5080134;28;20467;-65
2024/03/11 08:36:04;;;;;;;3.60;1.73;;;20.50;54.20;;;;;;5081157;28;20423;-64
2024/03/11 08:38:30;;;;;;;3.55;1.90;;;20.50;54.10;;;;;;5078065;28;20028;-66
2024/03/11 08:40:56;;;;;;;3.75;1.88;;;20.50;54.10;;;;;;5079593;28;20146;-66
2024/03/11 08:43:22;;;;;;;3.90;2.15;;;20.50;54.10;;;;;;5062949;28;20813;-66
2024/03/11 08:45:48;;;;;;;3.40;1.70;;;20.50;54.10;;;;;;5061930;28;20511;-66
2024/03/11 08:48:13;;;;;;;3.72;1.80;;;20.50;54.10;;;;;;5078963;28;20058;-67
2024/03/11 08:50:39;;;;;;;3.78;1.65;;;20.50;54.10;;;;;;5080507;28;20074;-66
2024/03/11 08:53:08;;;;;;;4.07;1.85;;;20.50;54.20;;;;;;5061692;28;20036;-67
2024/03/11 08:55:34;;;;;;;3.30;1.60;;;20.50;54.10;;;;;;5077523;28;20039;-67
2024/03/11 08:58:05;;;;;;;3.25;1.75;;;20.50;54.20;;;;;;5078695;28;20032;-66
2024/03/11 09:00:31;;;;;;;3.70;1.70;;;20.50;54.10;;;;;;5079754;28;20366;-66
2024/03/11 09:02:57;;;;;;;3.22;1.80;;;20.50;54.10;;;;;;5080358;28;20357;-66
2024/03/11 09:05:23;;;;;;;2.70;1.52;;;20.50;54.10;;;;;;5079913;28;20073;-66
2024/03/11 09:07:51;;;;;;;3.45;1.58;;;20.60;54.20;;;;;;5079238;28;20056;-66
2024/03/11 09:10:17;;;;;;;3.15;1.50;;;20.60;54.20;;;;;;5077645;28;20024;-67
2024/03/11 09:12:46;;;;;;;3.33;1.65;;;20.60;54.20;;;;;;5078464;28;20483;-67
2024/03/11 09:15:18;;;;;;;3.20;1.50;;;20.60;54.20;;;;;;5078404;28;20166;-66
2024/03/11 09:17:46;;;;;;;2.33;1.25;;;20.60;54.20;;;;;;5079643;28;20028;-66
2024/03/11 09:20:15;;;;;;;3.03;1.48;;;20.60;54.20;;;;;;5080157;28;20024;-64
2024/03/11 09:22:52;;;;;;;4.15;1.80;;;20.60;54.20;;;;;;5077705;28;20027;-64
2024/03/11 09:25:23;;;;;;;3.03;1.73;;;20.60;54.20;;;;;;5077787;28;20388;-65
2024/03/11 09:27:55;;;;;;;3.17;1.48;;;20.60;54.20;;;;;;5079491;28;20029;-64
2024/03/11 09:30:20;;;;;;;3.28;1.60;;;20.60;54.20;;;;;;5080184;28;20025;-65
2024/03/11 09:32:49;;;;;;;3.00;1.60;;;20.60;54.20;;;;;;5079678;28;20060;-65
2024/03/11 09:35:18;;;;;;;2.60;1.20;;;20.60;54.10;;;;;;5078584;28;20396;-65
2024/03/11 09:37:51;;;;;;;3.20;1.45;;;20.60;54.20;;;;;;5060636;28;20380;-65
2024/03/11 09:40:23;;;;;;;2.67;1.35;;;20.60;54.10;;;;;;5075293;28;20028;-64
2024/03/11 09:42:50;;;;;;;3.42;1.50;;;20.60;54.10;;;;;;5080092;28;20031;-65
2024/03/11 09:45:18;;;;;;;2.67;1.40;;;20.60;54.10;;;;;;5078925;28;20058;-65
2024/03/11 09:47:51;;;;;;;2.63;1.42;;;20.60;54.10;;;;;;5079027;28;20036;-64
2024/03/11 09:50:19;;;;;;;2.75;1.50;;;20.60;54.10;;;;;;5080696;28;20020;-66
2024/03/11 09:52:47;;;;;;;2.88;1.50;;;20.60;54.10;;;;;;5077897;28;20020;-66
2024/03/11 09:55:14;;;;;;;2.45;1.27;;;20.70;54.20;;;;;;5077078;28;20032;-66
2024/03/11 09:57:45;;;;;;;3.03;1.33;;;20.60;54.10;;;;;;5078765;28;20016;-66
2024/03/11 10:00:14;;;;;;;3.15;1.20;;;20.60;54.10;;;;;;5076985;28;20017;-66
2024/03/11 10:02:51;;;;;;;2.67;1.50;;;20.70;54.10;;;;;;5080134;28;20026;-66
2024/03/11 10:05:19;;;;;;;2.47;1.33;;;20.70;54.10;;;;;;5061293;28;20029;-66
2024/03/11 10:07:45;;;;;;;2.75;1.50;;;20.70;54.10;;;;;;5079507;28;20472;-66
2024/03/11 10:10:14;;;;;;;3.38;1.60;;;20.70;54.10;;;;;;5078893;28;20032;-66
2024/03/11 10:12:58;;;;;;;;;;;20.70;54.10;;;;;;5077877;28;20051;-66
2024/03/11 10:15:29;;;;;;;2.97;1.60;;;20.70;54.10;;;;;;5078209;28;19919;-66
2024/03/11 10:18:25;;;;;;;3.28;1.40;;;20.70;54.00;;;;;;5079451;28;20032;-66
2024/03/11 10:21:00;;;;;;;2.70;1.40;;;20.70;54.00;;;;;;5078074;28;20553;-65
2024/03/11 10:23:26;;;;;;;2.17;1.15;;;20.70;54.00;;;;;;5078073;28;20028;-65
2024/03/11 10:26:17;;;;;;;2.25;1.20;;;20.70;54.00;;;;;;5076616;28;20500;-65
2024/03/11 10:28:49;;;;;;;2.45;1.30;;;20.70;54.00;;;;;;5078794;28;20116;-64
2024/03/11 10:31:23;;;;;;;2.10;1.23;;;20.70;54.00;;;;;;5078184;28;20031;-64
2024/03/11 10:33:52;;;;;;;2.50;1.45;;;20.70;54.00;;;;;;5080232;28;20111;-64
2024/03/11 10:36:19;;;;;;;2.53;1.15;;;20.70;54.00;;;;;;5077577;28;20028;-65
2024/03/11 10:38:47;;;;;;;2.47;1.52;;;20.70;53.90;;;;;;5075099;28;20017;-64
2024/03/11 10:41:20;;;;;;;2.05;1.38;;;20.70;53.90;;;;;;5076008;28;20055;-64
2024/03/11 10:43:51;;;;;;;2.17;1.33;;;20.70;53.90;;;;;;5078191;28;20039;-64
2024/03/11 10:46:18;;;;;;;2.75;1.40;;;20.70;53.90;;;;;;5079331;28;20020;-65
2024/03/11 10:48:50;;;;;;;2.50;1.40;;;20.70;53.90;;;;;;5079418;28;20587;-64
2024/03/11 10:51:21;;;;;;;2.22;1.30;;;20.70;53.90;;;;;;5079997;28;20494;-64
2024/03/11 10:53:50;;;;;;;2.28;1.30;;;20.70;53.80;;;;;;5082318;28;20041;-64
2024/03/11 10:56:24;;;;;;;2.40;1.23;;;20.70;53.80;;;;;;5080245;28;20037;-64
2024/03/11 10:58:56;;;;;;;1.85;1.10;;;20.70;53.80;;;;;;5079558;28;20103;-64
2024/03/11 11:01:33;;;;;;;2.03;1.15;;;20.70;53.80;;;;;;5082033;28;20139;-65
2024/03/11 11:04:19;;;;;;;2.10;1.10;;;20.70;53.80;;;;;;5080296;28;20024;-64
2024/03/11 11:06:46;;;;;;;1.67;1.08;;;20.70;53.70;;;;;;5080123;28;20035;-64
2024/03/11 11:09:13;;;;;;;1.73;1.00;;;20.70;53.70;;;;;;5080025;28;20429;-64
2024/03/11 11:11:51;;;;;;;2.47;1.27;;;20.70;53.70;;;;;;5078888;28;20106;-64
2024/03/11 11:14:21;;;;;;;2.42;1.33;;;20.70;53.70;;;;;;5081814;28;20051;-64
2024/03/11 11:16:51;;;;;;;2.33;1.25;;;20.70;53.70;;;;;;5081439;28;20138;-65
2024/03/11 11:19:22;;;;;;;1.70;1.00;;;20.70;53.70;;;;;;5084262;28;20310;-65
2024/03/11 11:21:52;;;;;;;1.88;1.10;;;20.70;53.60;;;;;;5066598;28;20024;-64
2024/03/11 11:24:28;;;;;;;1.55;1.00;;;20.70;53.70;;;;;;5080673;28;20043;-64
2024/03/11 11:26:56;;;;;;;1.88;1.00;;;20.70;53.60;;;;;;5071237;28;20067;-64
2024/03/11 11:29:25;;;;;;;1.88;1.10;;;20.70;53.60;;;;;;5082466;28;20024;-66
2024/03/11 11:32:08;;;;;;;2.40;1.20;;;20.70;53.60;;;;;;5082644;28;20382;-66
2024/03/11 11:34:46;;;;;;;2.17;1.02;;;20.70;54.10;;;;;;5080346;28;20044;-66
2024/03/11 11:37:33;;;;;;;2.03;1.15;;;20.70;53.60;;;;;;5081325;28;20732;-67
2024/03/11 11:40:29;;;;;;;2.10;1.20;;;20.70;53.60;;;;;;5079372;28;20070;-65
2024/03/11 11:42:55;;;;;;;3.55;1.40;;;20.70;53.60;;;;;;5080679;28;20020;-65
2024/03/11 11:45:55;;;;;;;2.42;1.35;;;20.70;53.60;;;;;;5081174;28;20131;-65
2024/03/11 11:48:25;;;;;;;;;;;20.70;53.60;;;;;;5077392;28;20028;-65
2024/03/11 11:50:57;;;;;;;2.30;1.23;;;20.70;53.60;;;;;;5080760;28;19909;-65
2024/03/11 11:53:30;;;;;;;1.92;1.20;;;20.70;53.50;;;;;;5064359;28;20352;-65
2024/03/11 11:55:57;;;;;;;2.63;1.30;;;20.70;53.50;;;;;;5078671;28;20028;-64
2024/03/11 11:58:24;;;;;;;2.42;1.17;;;20.70;53.30;;;;;;5080842;28;20030;-64
2024/03/11 12:01:04;;;;;;;2.75;1.20;;;20.80;53.20;;;;;;5079788;28;20019;-64
2024/03/11 12:03:36;;;;;;;1.70;1.05;;;20.70;53.10;;;;;;5079432;28;20017;-64
2024/03/11 12:06:20;;;;;;;1.75;1.10;;;20.70;53.10;;;;;;5080359;28;20438;-65
2024/03/11 12:08:47;;;;;;;3.28;1.33;;;20.70;53.10;;;;;;5080385;28;20024;-67
2024/03/11 12:11:15;;;;;;;2.53;1.08;;;20.80;53.20;;;;;;5079679;28;20027;-66
2024/03/11 12:13:44;;;;;;;1.80;1.08;;;20.70;53.10;;;;;;5082035;28;20507;-67
2024/03/11 12:16:27;;;;;;;;;;;20.80;53.10;;;;;;5081177;28;20566;-66
2024/03/11 12:19:01;;;;;;;1.65;0.98;;;20.70;53.00;;;;;;5079758;28;20050;-66
2024/03/11 12:21:30;;;;;;;2.00;1.00;;;20.70;53.00;;;;;;5080968;28;20055;-66
2024/03/11 12:23:56;;;;;;;2.15;1.08;;;20.80;53.10;;;;;;5062428;28;20055;-67
2024/03/11 12:26:23;;;;;;;1.63;1.00;;;20.70;53.50;;;;;;5078245;28;20032;-66
2024/03/11 12:29:08;;;;;;;2.03;1.13;;;20.80;52.90;;;;;;5080080;28;20365;-66
2024/03/11 12:31:36;;;;;;;1.70;1.10;;;20.80;52.80;;;;;;5082410;28;20416;-67
2024/03/11 12:34:08;;;;;;;2.25;1.20;;;20.80;52.70;;;;;;5061299;28;20468;-67
2024/03/11 12:36:41;;;;;;;1.60;1.00;;;20.80;52.60;;;;;;5080260;28;20031;-66
2024/03/11 12:39:56;;;;;;;1.63;1.00;;;20.80;52.50;;;;;;5080288;28;20047;-65
2024/03/11 12:41:56;;;;;;;2.15;1.10;;;20.80;52.40;;;;;;5071625;28;20583;-64
2024/03/11 12:44:24;;;;;;;1.88;1.10;;;20.80;52.40;;;;;;5083281;28;20024;-65
2024/03/11 12:46:53;;;;;;;1.90;0.93;;;20.80;52.40;;;;;;5078178;28;20364;-65
2024/03/11 12:49:23;;;;;;;1.42;0.85;;;20.80;52.40;;;;;;5083777;28;20499;-64
2024/03/11 12:51:59;;;;;;;1.35;0.80;;;20.80;52.40;;;;;;5079684;28;20040;-65
2024/03/11 12:54:25;;;;;;;1.60;1.00;;;20.80;52.40;;;;;;5063248;28;20024;-65